Cowley, WY (82420)

5:53 PM MDT on October 31, 2014 (GMT -0600)
Lodgepole Court | Change Station
CLOSE
Current Station
Personal Weather Station
Location: Powell, WY
Elevation: 4413 ft
Nearby Weather Stations

Elev 4413 ft 44.76 °N, 108.77 °W | Updated 5 minutes ago

Clear
Clear
65.2 °F
Feels Like 65.2 °F
N
6.0
Wind Variable Wind from ESE
Gusts 8.0 mph

Today
High -- | Low -- °F
--% Chance of Precip.
Yesterday
High -- | Low -- °F
Precip. -- in
7:50 AM 6:03 PM
First Quarter, 60% visible
Pressure 29.79 in
Visibility 10.0 miles
Clouds Clear
Dew Point 31 °F
Humidity 28%
Rainfall 0.00 in
Snow Depth Not available.
UV 1 out of 12
Pollen 1.90 out of 12
Air Quality Not available.
Flu Activity Not available.
METAR KGEY 312253Z AUTO 15010KT 10SM CLR 22/M04 A2982 RMK AO2 SLP086 T02171039

More Conditions Fewer Conditions

Pressure 29.79 in
Visibility 10.0 miles
Clouds Clear
Dew Point 31 °F
Humidity 28%
Rainfall 0.00 in
Snow Depth Not available.
UV 1 out of 12
Pollen 1.90 out of 12
Air Quality Not available.
Flu Activity Not available.
METAR KGEY 312253Z AUTO 15010KT 10SM CLR 22/M04 A2982 RMK AO2 SLP086 T02171039

More Conditions Fewer Conditions

10-Day Weather Forecast

Almanac

Astronomy

Oct. 31, 2014 Rise Set
Actual Time
Civil Twilight
Nautical Twilight
Astronomical Twilight
Moon
Length of Visible Light
Length of Day
Tomorrow will be .
, % of the Moon is Illuminated

Today's Extremes

State Highs State Lows

Community

WunderPhotos

Upload Photos

1,766,786 photos uploaded!

WunderBlogs® & News

Nearby

Air Quality

  Air Quality AQ Index Pollutant
Not available.

Snow Depth

Station Depth Elevation

Earthquake Activity

City Distance Mag. Time & Date
Minimum magnitude displayed is 2.5.

Coastal Water Temperatures

Place Temperature

Nearby Weather Stations